Qiryat Ata, Israel
Current Conditions -  °F | °C
As of 9:50 PM on Tuesday 21 Oct 2014 (Local Time) from LLHA Reporting Station
Clear Clear  
Wind Chill: 64°   Ceiling: Unl
Heat Index: 64°   Visibility: 6mi
Dew Point: 52°   Wind: 1mph
Humidity: 64%   Direction: NA
Pressure: 30.06"   Gusts: NA
Location:  32.8°N, 35.11°E
Report Text: LLHA 211850Z VRB01KT CAVOK 18/11 Q1018
Loading
Personal Weather Stations






























Interactive Weather Map
Tropical Storm Tracking
New forecast layout! Learn more

10-Day Weather Forecast

Advertisements
Track Severe Weather on mobile